KACT - Waco Rgnl, TX, US

Issued at 2320 UTC 29 May 2020
Updated at 2323 UTC 29 May 2020
Potential Impact None Slight Moderate High
Time2251Z 30/00Z 30/01Z 30/02Z 30/03Z 30/04Z 30/05Z 30/06Z 30/07Z 30/08Z 30/09Z 30/10Z 30/11Z 30/12Z>>
Type OBS PRVL PRVL PRVL PRVL PRVL PRVL PRVL PRVL PRVL PRVL PRVL PRVL PRVL
VIS 10 >6 >6 >6 >6 >6 >6 >6 >6 >6 >6 >6 >6 >6
CIG -- -- -- -- -- -- -- -- -- -- -- -- -- --
Cover CLR SCT SCT SCT SCT SCT SCT SCT SCT SCT SCT SCT SCT SCT
FltCat VFR VFR VFR VFR VFR VFR VFR VFR VFR VFR VFR VFR VFR VFR
WX -- -- -- -- -- -- -- -- -- -- -- -- -- --
WDir 50 50 50 50 50 50 50 50 50 50 50 50 50 50
WSpd 11 9 9 9 9 9 9 9 9 9 9 9 9 9
WGst -- -- -- -- -- -- -- -- -- -- -- -- -- --
Raw TAF
KACT 292320Z 3000/3024 05009KT P6SM SCT250

Raw METAR
KACT 292251Z 05011KT 10SM CLR 31/14 A3010 RMK AO2 SLP184 T03060139
KACT 292151Z 04007KT 10SM CLR 31/14 A3011 RMK AO2 SLP188 T03110139
KACT 292051Z 03007KT 10SM CLR 31/14 A3012 RMK AO2 SLP192 T03060144 58002

METAR Board
Radar Display
Forecast Discussion
For situational awareness. Not to be used for flight planning purposes.